Time;durP1;ratioP1;P1;durP2;ratioP2;P2;SDS_P1;SDS_P2;PMS_P1;PMS_P2;Temp;Humidity;BMP_temperature;BMP_pressure;BME280_temperature;BME280_humidity;BME280_pressure;Samples;Min_cycle;Max_cycle;Signal;HPM_P1;HPM_P2
2023/01/01 00:01:48;;;;;;;43.77;28.20;;;;;;;5.46;91.52;96795.60;1786739;80;21045;-67
2023/01/01 00:04:15;;;;;;;49.77;33.10;;;;;;;5.49;91.73;96794.78;1787092;80;20974;-67
2023/01/01 00:06:45;;;;;;;39.83;24.73;;;;;;;5.53;92.42;96788.77;1787013;80;21013;-67
2023/01/01 00:11:56;;;;;;;43.33;28.87;;;;;;;5.57;92.67;96787.56;1786998;80;21013;-67
2023/01/01 00:14:22;;;;;;;41.17;27.07;;;;;;;5.61;92.27;96793.73;1787165;80;20970;-68
2023/01/01 00:16:49;;;;;;;37.97;26.27;;;;;;;5.63;92.05;96792.03;1787249;80;20990;-67
2023/01/01 00:19:15;;;;;;;38.20;26.13;;;;;;;5.60;91.52;96800.70;1787078;80;21069;-67
2023/01/01 00:21:42;;;;;;;42.47;28.30;;;;;;;5.60;91.75;96807.69;1787252;80;21025;-67
2023/01/01 00:24:08;;;;;;;43.83;28.00;;;;;;;5.57;92.00;96803.70;1786992;80;21032;-67
2023/01/01 00:26:35;;;;;;;42.27;26.87;;;;;;;5.54;91.62;96802.30;1787178;80;20998;-68
2023/01/01 00:29:03;;;;;;;34.80;24.13;;;;;;;5.51;91.57;96809.67;1786995;80;20974;-68
2023/01/01 00:31:30;;;;;;;38.43;25.60;;;;;;;5.45;92.58;96799.52;1786884;80;21021;-67
2023/01/01 00:33:58;;;;;;;38.60;25.47;;;;;;;5.39;92.50;96805.48;1787096;80;20984;-67
2023/01/01 00:36:27;;;;;;;40.90;25.63;;;;;;;5.35;92.14;96816.33;1787331;80;21061;-67
2023/01/01 00:38:54;;;;;;;47.57;29.77;;;;;;;5.30;91.94;96821.89;1787185;80;20981;-67
2023/01/01 00:41:22;;;;;;;41.27;27.53;;;;;;;5.24;92.32;96827.41;1786763;80;21109;-67
2023/01/01 00:43:48;;;;;;;47.83;31.80;;;;;;;5.24;92.37;96833.95;1787137;80;21005;-68
2023/01/01 00:46:15;;;;;;;62.67;36.03;;;;;;;5.23;92.48;96829.14;1787153;80;20954;-67
2023/01/01 00:48:41;;;;;;;79.00;46.70;;;;;;;5.25;92.51;96834.42;1787197;80;20986;-67
2023/01/01 00:51:09;;;;;;;82.63;47.93;;;;;;;5.20;92.17;96831.70;1786825;80;21022;-67
2023/01/01 00:53:36;;;;;;;73.83;45.07;;;;;;;5.18;92.32;96833.39;1787212;80;21472;-67
2023/01/01 00:56:04;;;;;;;70.97;41.43;;;;;;;5.14;92.22;96831.55;1786805;80;20970;-67
2023/01/01 00:58:30;;;;;;;63.83;39.50;;;;;;;5.10;91.82;96835.84;1787154;80;21469;-67
2023/01/01 01:00:57;;;;;;;63.83;38.93;;;;;;;5.08;92.09;96839.27;1786701;80;21077;-67
2023/01/01 01:03:26;;;;;;;54.77;32.07;;;;;;;5.04;92.05;96846.18;1787132;80;21005;-68
2023/01/01 01:05:58;;;;;;;45.90;28.93;;;;;;;4.97;91.50;96845.14;1787183;80;21061;-67
2023/01/01 01:08:26;;;;;;;57.57;35.27;;;;;;;4.91;91.60;96846.32;1786436;80;21036;-68
2023/01/01 01:10:54;;;;;;;53.33;33.17;;;;;;;4.84;92.52;96843.49;1787153;80;20974;-67
2023/01/01 01:13:21;;;;;;;48.53;31.17;;;;;;;4.84;92.44;96840.88;1787067;80;21013;-67
2023/01/01 01:15:48;;;;;;;54.33;32.53;;;;;;;4.78;92.52;96847.73;1786520;80;21048;-67
2023/01/01 01:18:14;;;;;;;53.93;32.53;;;;;;;4.79;92.85;96836.88;1787222;80;20985;-67
2023/01/01 01:20:51;;;;;;;52.03;30.70;;;;;;;4.78;92.81;96836.39;1787093;80;20977;-67
2023/01/01 01:23:19;;;;;;;50.23;32.07;;;;;;;4.76;92.51;96840.30;1787277;80;21072;-67
2023/01/01 01:25:46;;;;;;;48.27;30.80;;;;;;;4.73;92.52;96835.41;1787277;80;21010;-67
2023/01/01 01:28:13;;;;;;;46.60;30.60;;;;;;;4.69;92.29;96838.81;1787088;80;21077;-67
2023/01/01 01:30:40;;;;;;;51.90;31.50;;;;;;;4.67;92.24;96838.77;1786696;80;20989;-67
2023/01/01 01:33:07;;;;;;;41.50;26.10;;;;;;;4.64;92.55;96836.08;1787416;80;20982;-67
2023/01/01 01:35:34;;;;;;;41.83;28.27;;;;;;;4.58;92.23;96841.14;1786836;80;21017;-67
2023/01/01 01:38:00;;;;;;;44.07;29.43;;;;;;;4.49;92.04;96837.89;1786940;80;21013;-67
2023/01/01 01:40:27;;;;;;;45.57;29.67;;;;;;;4.48;92.19;96841.33;1779634;80;21061;-67
2023/01/01 01:42:53;;;;;;;37.47;24.43;;;;;;;4.43;92.41;96836.41;1786765;80;21608;-67
2023/01/01 01:45:20;;;;;;;28.33;18.93;;;;;;;4.36;92.08;96842.36;1786808;80;20993;-67
2023/01/01 01:47:57;;;;;;;37.13;24.13;;;;;;;4.31;92.08;96833.52;1787051;80;21002;-67
2023/01/01 01:50:35;;;;;;;31.53;21.40;;;;;;;4.29;92.35;96829.55;1787204;80;21010;-68
2023/01/01 01:53:10;;;;;;;48.53;33.20;;;;;;;4.28;92.59;96833.41;1787109;80;20994;-67
2023/01/01 01:55:42;;;;;;;38.30;24.67;;;;;;;4.26;92.67;96840.36;1754428;80;21518;-67
2023/01/01 01:58:11;;;;;;;33.60;21.67;;;;;;;4.26;92.57;96834.70;1786872;80;21531;-67
2023/01/01 02:00:37;;;;;;;29.83;20.93;;;;;;;4.19;91.94;96832.77;1786948;80;21056;-67
2023/01/01 02:03:29;;;;;;;39.70;25.30;;;;;;;4.19;92.62;96836.69;1787220;80;21047;-68
2023/01/01 02:05:58;;;;;;;40.23;26.50;;;;;;;4.14;92.56;96830.46;1787069;80;20970;-67
2023/01/01 02:08:25;;;;;;;25.77;16.97;;;;;;;4.10;92.58;96833.83;1787070;80;21009;-68
2023/01/01 02:10:52;;;;;;;39.40;24.10;;;;;;;4.11;92.67;96835.61;1786924;80;21030;-68
2023/01/01 02:13:18;;;;;;;35.27;21.13;;;;;;;4.09;92.64;96843.82;1787116;80;21021;-67
2023/01/01 02:16:12;;;;;;;29.80;20.30;;;;;;;4.05;92.53;96837.61;1787168;80;21028;-67
2023/01/01 02:18:50;;;;;;;26.73;17.40;;;;;;;4.00;92.05;96834.42;1786725;80;20990;-68
2023/01/01 02:21:23;;;;;;;32.53;21.67;;;;;;;4.04;92.55;96831.94;1787186;80;21008;-67
2023/01/01 02:24:16;;;;;;;45.10;28.33;;;;;;;4.08;92.81;96832.89;1786251;80;20986;-68
2023/01/01 02:26:51;;;;;;;44.67;28.77;;;;;;;4.12;92.89;96836.06;1786962;80;21453;-67
2023/01/01 02:29:52;;;;;;;37.70;25.63;;;;;;;4.16;92.94;96837.01;1786182;80;21100;-67
2023/01/01 02:32:27;;;;;;;38.67;24.27;;;;;;;4.19;92.92;96838.42;1786668;80;21519;-68
2023/01/01 02:37:58;;;;;;;23.70;15.90;;;;;;;4.10;92.36;96822.95;1787152;80;20995;-67
2023/01/01 02:40:26;;;;;;;24.27;16.17;;;;;;;4.09;92.67;96830.77;1786932;80;21027;-67
2023/01/01 02:42:54;;;;;;;23.50;15.73;;;;;;;4.13;92.94;96831.28;1779682;80;21046;-68
2023/01/01 02:45:21;;;;;;;23.63;16.03;;;;;;;4.14;92.73;96823.05;1786994;80;21047;-67
2023/01/01 02:47:48;;;;;;;19.73;13.50;;;;;;;4.12;92.68;96825.19;1786875;80;21477;-67
2023/01/01 02:50:24;;;;;;;21.80;13.67;;;;;;;4.14;92.94;96829.16;1787099;80;20955;-68
2023/01/01 02:53:15;;;;;;;29.03;17.60;;;;;;;4.15;93.04;96823.50;1787068;80;21075;-68
2023/01/01 02:55:53;;;;;;;18.93;13.50;;;;;;;4.10;92.78;96825.98;1786515;80;20970;-67
2023/01/01 03:01:34;;;;;;;23.70;16.47;;;;;;;4.03;92.59;96829.28;1742580;80;21090;-67
2023/01/01 03:04:31;;;;;;;29.50;19.20;;;;;;;3.94;92.87;96823.83;1760406;80;21025;-67
2023/01/01 03:07:12;;;;;;;28.73;19.47;;;;;;;3.91;92.98;96824.63;1787131;80;21522;-67
2023/01/01 03:10:01;;;;;;;18.73;12.23;;;;;;;3.83;92.41;96821.81;1786705;80;21032;-67
2023/01/01 03:12:41;;;;;;;20.57;14.10;;;;;;;3.83;92.60;96820.52;1787141;80;21531;-68
2023/01/01 03:15:25;;;;;;;21.60;12.73;;;;;;;3.86;93.07;96812.75;1787100;80;21527;-67
2023/01/01 03:18:06;;;;;;;22.07;11.73;;;;;;;3.86;93.47;96811.45;1786846;80;21126;-67
2023/01/01 03:20:36;;;;;;;17.90;13.30;;;;;;;3.86;93.02;96811.88;1786866;80;20977;-67
2023/01/01 03:23:07;;;;;;;28.30;17.27;;;;;;;3.83;93.28;96812.67;1786929;80;21536;-67
2023/01/01 03:25:39;;;;;;;12.53;9.43;;;;;;;3.84;93.31;96813.55;1787043;80;21507;-67
2023/01/01 03:28:31;;;;;;;12.33;8.30;;;;;;;3.83;92.99;96810.46;1786728;80;21583;-67
2023/01/01 03:31:00;;;;;;;11.43;7.62;;;;;;;3.88;93.21;96814.98;1787145;80;21040;-67
2023/01/01 03:33:37;;;;;;;10.87;7.77;;;;;;;3.90;93.42;96811.09;1787101;80;21468;-67
2023/01/01 03:36:18;;;;;;;13.30;8.33;;;;;;;3.91;93.15;96812.88;1787134;80;20993;-67
2023/01/01 03:38:58;;;;;;;23.03;14.13;;;;;;;3.97;93.48;96816.06;1787186;80;21059;-67
2023/01/01 03:41:49;;;;;;;14.73;11.17;;;;;;;3.98;93.78;96824.35;1787063;80;21021;-67
2023/01/01 03:44:44;;;;;;;8.17;6.27;;;;;;;3.98;93.28;96812.20;1787246;80;21001;-67
2023/01/01 03:47:12;;;;;;;7.67;5.93;;;;;;;4.01;93.52;96816.63;1785762;80;21022;-68
2023/01/01 03:49:39;;;;;;;12.17;7.73;;;;;;;4.06;93.61;96810.67;1786957;80;21132;-68
2023/01/01 03:52:20;;;;;;;28.90;18.20;;;;;;;4.13;93.75;96824.75;1787550;80;20990;-68
2023/01/01 03:55:10;;;;;;;19.93;14.40;;;;;;;4.15;94.16;96813.92;1787144;80;21512;-67
2023/01/01 03:58:06;;;;;;;16.40;10.70;;;;;;;4.16;94.12;96809.19;1787147;80;21053;-67
2023/01/01 04:00:38;;;;;;;7.20;4.63;;;;;;;4.18;93.99;96806.16;1787660;80;21053;-67
2023/01/01 04:03:09;;;;;;;9.43;6.33;;;;;;;4.20;93.75;96800.99;1787269;80;20994;-68
2023/01/01 04:05:40;;;;;;;10.20;7.70;;;;;;;4.24;94.00;96805.46;1786008;80;21515;-67
2023/01/01 04:08:09;;;;;;;12.10;6.53;;;;;;;4.27;94.06;96810.33;1787302;80;21014;-67
2023/01/01 04:10:41;;;;;;;11.13;8.40;;;;;;;4.31;94.07;96811.31;1787196;80;20977;-68
2023/01/01 04:13:08;;;;;;;13.97;9.13;;;;;;;4.31;93.85;96810.00;1754563;80;21062;-68
2023/01/01 04:15:37;;;;;;;11.07;6.10;;;;;;;4.37;94.08;96824.52;1786971;80;20985;-68
2023/01/01 04:18:04;;;;;;;9.40;5.93;;;;;;;4.37;93.79;96828.44;1787140;80;21487;-67
2023/01/01 04:20:31;;;;;;;8.03;6.10;;;;;;;4.40;93.78;96828.94;1787318;80;21021;-67
2023/01/01 04:22:59;;;;;;;6.70;5.00;;;;;;;4.43;93.86;96834.23;1787272;80;21518;-68
2023/01/01 04:25:28;;;;;;;6.93;4.40;;;;;;;4.40;93.53;96828.94;1787094;80;21025;-68
2023/01/01 04:28:02;;;;;;;8.03;6.00;;;;;;;4.37;93.39;96829.73;1787269;80;21051;-68
2023/01/01 04:30:27;;;;;;;7.43;4.93;;;;;;;4.37;93.53;96824.94;1787237;80;20981;-67
2023/01/01 04:32:55;;;;;;;6.37;5.03;;;;;;;4.38;93.68;96829.31;1787001;80;21096;-67
2023/01/01 04:35:22;;;;;;;12.53;8.63;;;;;;;4.39;94.08;96826.75;1787133;80;21108;-68
2023/01/01 04:37:48;;;;;;;17.37;10.40;;;;;;;4.43;94.01;96831.19;1787251;80;20985;-68
2023/01/01 04:40:15;;;;;;;13.77;8.30;;;;;;;4.46;94.08;96836.52;1787358;80;21001;-68
2023/01/01 04:42:42;;;;;;;13.30;7.67;;;;;;;4.51;94.20;96843.14;1800840;80;21515;-67
2023/01/01 04:45:13;;;;;;;14.93;8.53;;;;;;;4.50;93.94;96838.77;1801079;80;21012;-68
2023/01/01 04:47:38;;;;;;;9.53;6.47;;;;;;;4.51;94.17;96829.67;1800614;80;21038;-67
2023/01/01 04:50:07;;;;;;;18.63;13.80;;;;;;;4.55;94.14;96847.17;1801059;80;21008;-67
2023/01/01 04:52:33;;;;;;;19.77;14.87;;;;;;;4.51;94.11;96836.60;1801058;80;20993;-68
2023/01/01 04:55:00;;;;;;;15.30;11.37;;;;;;;4.48;93.82;96837.41;1801085;80;21427;-67
2023/01/01 04:57:29;;;;;;;12.00;8.73;;;;;;;4.47;93.80;96834.34;1801412;80;20977;-67
2023/01/01 04:59:56;;;;;;;10.43;7.77;;;;;;;4.46;93.71;96840.83;1800856;80;21021;-68
2023/01/01 05:02:23;;;;;;;11.23;7.57;;;;;;;4.45;93.68;96846.91;1801232;80;20992;-68
2023/01/01 05:04:49;;;;;;;16.40;11.23;;;;;;;4.50;94.00;96851.41;1801031;80;21041;-67
2023/01/01 05:07:16;;;;;;;13.13;9.53;;;;;;;4.50;93.81;96851.84;1801153;80;20985;-67
2023/01/01 05:09:42;;;;;;;10.63;7.57;;;;;;;4.51;93.74;96854.50;1800820;80;21060;-67
2023/01/01 05:12:09;;;;;;;20.87;14.67;;;;;;;4.54;93.87;96860.23;1801012;80;21052;-67
2023/01/01 05:14:35;;;;;;;29.93;18.17;;;;;;;4.55;94.02;96860.67;1801007;80;20961;-67
2023/01/01 05:17:02;;;;;;;25.60;17.30;;;;;;;4.52;93.69;96863.22;1801057;80;21507;-67
2023/01/01 05:19:28;;;;;;;23.20;17.30;;;;;;;4.51;93.45;96853.20;1800725;80;21602;-68
2023/01/01 05:21:55;;;;;;;19.17;13.53;;;;;;;4.54;93.86;96857.61;1801028;80;20957;-67
2023/01/01 05:24:21;;;;;;;15.03;9.60;;;;;;;4.59;93.87;96857.73;1801136;80;21003;-68
2023/01/01 05:26:48;;;;;;;25.77;16.37;;;;;;;4.60;93.93;96859.06;1801071;80;21483;-67
2023/01/01 05:29:15;;;;;;;23.93;17.07;;;;;;;4.60;93.77;96861.67;1800921;80;20989;-67
2023/01/01 05:31:42;;;;;;;13.13;9.63;;;;;;;4.57;93.49;96860.73;1800887;80;21036;-68
2023/01/01 05:34:08;;;;;;;11.17;7.03;;;;;;;4.48;93.14;96851.78;1798216;80;21020;-68
2023/01/01 05:36:37;;;;;;;13.93;8.70;;;;;;;4.45;93.46;96851.71;1801019;80;21032;-68
2023/01/01 05:39:08;;;;;;;12.63;6.97;;;;;;;4.46;93.62;96861.34;1801039;80;21016;-67
2023/01/01 05:41:35;;;;;;;12.20;6.00;;;;;;;4.42;93.28;96863.83;1801011;80;20977;-68
2023/01/01 05:44:04;;;;;;;8.77;6.10;;;;;;;4.44;93.88;96866.07;1800575;80;21491;-67
2023/01/01 05:46:32;;;;;;;6.80;4.53;;;;;;;4.44;93.75;96868.68;1801033;80;21020;-67
2023/01/01 05:48:59;;;;;;;10.87;6.67;;;;;;;4.45;93.80;96875.66;1801166;80;21060;-68
2023/01/01 05:51:28;;;;;;;7.47;4.83;;;;;;;4.45;93.94;96870.01;1801013;80;21056;-67
2023/01/01 05:53:56;;;;;;;7.07;4.73;;;;;;;4.39;93.37;96875.09;1801054;80;21031;-67
2023/01/01 05:56:23;;;;;;;28.07;16.43;;;;;;;4.41;93.78;96873.80;1800937;80;21547;-67
2023/01/01 05:58:50;;;;;;;10.10;6.47;;;;;;;4.38;93.51;96865.47;1800710;80;21005;-67
2023/01/01 06:01:21;;;;;;;6.20;4.57;;;;;;;4.40;93.61;96868.13;1801057;80;21005;-68
2023/01/01 06:03:49;;;;;;;13.30;8.13;;;;;;;4.41;93.76;96868.58;1801063;80;21115;-68
2023/01/01 06:06:23;;;;;;;35.67;21.07;;;;;;;4.43;93.99;96878.22;1800980;80;21052;-67
2023/01/01 06:08:55;;;;;;;43.50;25.70;;;;;;;4.43;93.91;96874.30;1801141;80;21041;-68
2023/01/01 06:11:23;;;;;;;34.98;20.12;;;;;;;4.43;93.72;96879.53;1801151;80;21463;-67
2023/01/01 06:13:56;;;;;;;11.30;6.30;;;;;;;4.45;93.88;96871.74;1801237;80;21084;-67
2023/01/01 06:16:23;;;;;;;9.45;6.00;;;;;;;4.40;93.33;96875.97;1801034;80;21016;-68
2023/01/01 06:18:50;;;;;;;25.90;16.50;;;;;;;4.38;93.62;96871.12;1800633;80;21028;-68
2023/01/01 06:21:20;;;;;;;16.07;11.23;;;;;;;4.37;93.68;96879.39;1800930;80;21005;-67
2023/01/01 06:23:46;;;;;;;32.17;19.87;;;;;;;4.38;93.67;96875.04;1801081;80;21062;-67
2023/01/01 06:26:24;;;;;;;33.63;22.77;;;;;;;4.30;93.17;96871.80;1801210;80;21004;-67
2023/01/01 06:28:51;;;;;;;34.40;22.57;;;;;;;4.23;92.74;96876.82;1800096;80;21056;-68
2023/01/01 06:31:20;;;;;;;31.60;19.30;;;;;;;4.21;93.21;96880.72;1800920;80;21123;-67
2023/01/01 06:33:49;;;;;;;35.80;22.77;;;;;;;4.21;93.49;96878.11;1801068;80;21043;-67
2023/01/01 06:36:19;;;;;;;13.30;9.07;;;;;;;4.18;93.46;96878.00;1798302;80;20933;-68
2023/01/01 06:38:50;;;;;;;8.23;4.83;;;;;;;4.21;93.68;96878.11;1800652;80;21021;-67
2023/01/01 06:41:22;;;;;;;14.47;8.73;;;;;;;4.21;93.47;96875.89;1801055;80;21065;-67
2023/01/01 06:43:49;;;;;;;20.50;10.60;;;;;;;4.21;93.82;96880.72;1800926;80;21064;-68
2023/01/01 06:46:25;;;;;;;26.50;16.93;;;;;;;4.20;93.63;96883.28;1800559;80;21025;-67
2023/01/01 06:48:56;;;;;;;19.60;13.20;;;;;;;4.19;93.60;96896.77;1801193;80;20985;-68
2023/01/01 06:51:32;;;;;;;6.20;4.33;;;;;;;4.18;93.85;96899.33;1800794;80;21025;-68
2023/01/01 06:54:00;;;;;;;11.10;4.70;;;;;;;4.14;93.52;96898.37;1800615;80;21037;-68
2023/01/01 06:56:28;;;;;;;7.63;5.93;;;;;;;4.13;93.84;96899.20;1801127;80;20973;-68
2023/01/01 06:58:56;;;;;;;7.90;4.93;;;;;;;4.12;93.76;96902.23;1800775;80;21098;-68
2023/01/01 07:01:27;;;;;;;11.13;7.20;;;;;;;4.16;94.13;96898.00;1800933;80;21023;-68
2023/01/01 07:03:57;;;;;;;17.37;10.50;;;;;;;4.15;93.77;96909.27;1800867;80;21116;-68
2023/01/01 07:06:26;;;;;;;20.80;13.63;;;;;;;4.11;93.64;96896.99;1800794;80;20996;-67
2023/01/01 07:08:52;;;;;;;31.87;18.37;;;;;;;4.14;93.98;96903.59;1801071;80;21001;-67
2023/01/01 07:11:19;;;;;;;41.20;24.93;;;;;;;4.19;94.10;96905.91;1801113;80;21024;-68
2023/01/01 07:13:46;;;;;;;20.03;9.53;;;;;;;4.24;94.32;96901.70;1800977;80;20969;-67
2023/01/01 07:16:14;;;;;;;5.83;3.97;;;;;;;4.25;93.77;96896.92;1801082;80;21048;-67
2023/01/01 07:18:40;;;;;;;5.70;4.17;;;;;;;4.27;93.83;96898.28;1800787;80;21017;-67
2023/01/01 07:21:30;;;;;;;7.83;2.93;;;;;;;4.35;94.04;96900.67;1800930;80;20969;-67
2023/01/01 07:24:00;;;;;;;4.43;3.40;;;;;;;4.37;93.68;96901.59;1801118;80;21579;-68
2023/01/01 07:26:28;;;;;;;5.00;3.10;;;;;;;4.29;92.92;96896.60;1801285;80;20997;-67
2023/01/01 07:28:56;;;;;;;3.33;2.20;;;;;;;4.32;93.71;96898.86;1801124;80;21522;-67
2023/01/01 07:31:22;;;;;;;111.53;62.60;;;;;;;4.42;94.12;96901.73;1801158;80;20984;-68
2023/01/01 07:33:49;;;;;;;54.80;38.57;;;;;;;4.45;93.69;96892.22;1801093;80;21553;-67
2023/01/01 07:36:16;;;;;;;7.37;4.70;;;;;;;4.49;93.67;96895.81;1800765;80;21025;-67
2023/01/01 07:38:42;;;;;;;5.03;2.70;;;;;;;4.53;93.65;96892.42;1801351;80;20976;-67
2023/01/01 07:41:10;;;;;;;5.83;4.43;;;;;;;4.51;93.18;96891.48;1801071;80;21037;-68
2023/01/01 07:43:37;;;;;;;8.60;5.03;;;;;;;4.52;93.13;96891.97;1801336;80;21020;-67
2023/01/01 07:46:04;;;;;;;3.63;3.20;;;;;;;4.51;93.23;96895.41;1801332;80;21028;-67
2023/01/01 07:48:30;;;;;;;6.17;3.50;;;;;;;4.48;92.89;96897.95;1800885;80;21455;-68
2023/01/01 07:50:57;;;;;;;8.33;3.93;;;;;;;4.40;92.60;96892.52;1801212;80;21036;-67
2023/01/01 07:53:23;;;;;;;5.47;3.27;;;;;;;4.43;93.19;96896.95;1800855;80;21028;-67
2023/01/01 07:55:50;;;;;;;7.93;4.10;;;;;;;4.54;93.83;96894.20;1801299;80;21016;-67
2023/01/01 07:58:17;;;;;;;10.87;5.17;;;;;;;4.47;92.87;96884.44;1801126;80;21069;-68
2023/01/01 08:00:47;;;;;;;8.80;5.70;;;;;;;4.51;93.49;96895.02;1800866;80;21017;-67
2023/01/01 08:03:15;;;;;;;12.00;8.40;;;;;;;4.63;93.93;96890.50;1800684;80;21546;-67
2023/01/01 08:05:42;;;;;;;15.90;10.40;;;;;;;4.73;94.19;96889.88;1801123;80;21075;-67
2023/01/01 08:08:10;;;;;;;12.90;8.80;;;;;;;4.86;94.34;96889.75;1801168;80;20949;-68
2023/01/01 08:10:37;;;;;;;14.10;8.40;;;;;;;4.93;94.51;96890.37;1801008;80;21008;-67
2023/01/01 08:13:07;;;;;;;17.57;12.47;;;;;;;4.98;93.57;96898.33;1801248;80;20992;-68
2023/01/01 08:15:34;;;;;;;28.37;20.30;;;;;;;4.86;92.77;96908.06;1801221;80;21047;-67
2023/01/01 08:18:04;;;;;;;15.93;9.60;;;;;;;4.80;93.46;96896.16;1800885;80;20988;-67
2023/01/01 08:20:32;;;;;;;13.10;9.07;;;;;;;4.83;93.46;96900.58;1801108;80;21001;-68
2023/01/01 08:23:00;;;;;;;15.47;10.90;;;;;;;4.87;93.71;96910.28;1800896;80;21021;-68
2023/01/01 08:25:26;;;;;;;19.90;13.13;;;;;;;4.91;93.56;96906.87;1801100;80;20973;-67
2023/01/01 08:27:54;;;;;;;23.53;11.90;;;;;;;4.99;93.65;96906.66;1800824;80;21543;-67
2023/01/01 08:30:20;;;;;;;26.87;17.40;;;;;;;5.11;94.20;96909.97;1800960;80;20985;-67
2023/01/01 08:32:47;;;;;;;24.30;16.97;;;;;;;5.38;95.28;96907.11;1801062;80;21000;-68
2023/01/01 08:35:14;;;;;;;22.80;15.17;;;;;;;5.63;95.07;96915.09;1801305;80;20954;-68
2023/01/01 08:37:40;;;;;;;21.43;14.83;;;;;;;5.84;94.52;96914.22;1801173;80;21499;-67
2023/01/01 08:40:11;;;;;;;19.40;13.27;;;;;;;5.95;93.78;96916.24;1801225;80;20969;-67
2023/01/01 08:42:38;;;;;;;19.00;11.20;;;;;;;5.97;93.06;96914.11;1793340;80;21016;-67
2023/01/01 08:45:07;;;;;;;14.73;10.23;;;;;;;6.00;92.86;96915.91;1786999;80;21017;-68
2023/01/01 08:47:34;;;;;;;11.23;8.13;;;;;;;6.00;92.72;96916.78;1787096;80;21037;-67
2023/01/01 08:50:00;;;;;;;10.20;7.73;;;;;;;6.01;92.91;96907.19;1787367;80;20977;-67
2023/01/01 08:52:27;;;;;;;10.60;7.13;;;;;;;6.09;93.43;96911.27;1787202;80;21005;-68
2023/01/01 08:54:53;;;;;;;13.47;7.43;;;;;;;6.23;93.76;96915.05;1787225;80;21507;-67
2023/01/01 08:57:20;;;;;;;11.20;6.67;;;;;;;6.32;93.60;96915.20;1779890;80;21014;-67
2023/01/01 08:59:46;;;;;;;9.03;5.90;;;;;;;6.40;93.75;96905.78;1787260;80;21436;-67
2023/01/01 09:02:13;;;;;;;9.17;7.43;;;;;;;6.59;94.15;96915.28;1787254;80;20993;-67
2023/01/01 09:04:39;;;;;;;14.17;10.00;;;;;;;6.78;94.49;96904.27;1787138;80;20958;-67
2023/01/01 09:07:06;;;;;;;11.77;8.30;;;;;;;6.97;94.08;96914.63;1787020;80;20981;-67
2023/01/01 09:09:32;;;;;;;10.78;6.60;;;;;;;7.21;94.36;96910.66;1787097;80;21013;-67
2023/01/01 09:12:04;;;;;;;19.93;10.73;;;;;;;7.36;93.54;96914.82;1787171;80;21009;-67
2023/01/01 09:14:32;;;;;;;14.18;8.55;;;;;;;7.53;93.76;96916.36;1787106;80;20998;-67
2023/01/01 09:16:59;;;;;;;11.03;7.65;;;;;;;7.68;93.38;96898.63;1787130;80;21028;-67
2023/01/01 09:19:26;;;;;;;11.25;8.50;;;;;;;7.90;93.57;96901.11;1787029;80;20973;-68
2023/01/01 09:21:53;;;;;;;11.78;7.65;;;;;;;8.09;93.14;96891.69;1787187;80;21009;-68
2023/01/01 09:24:20;;;;;;;10.50;7.50;;;;;;;8.28;93.21;96893.67;1787023;80;21523;-68
2023/01/01 09:26:46;;;;;;;10.28;8.33;;;;;;;8.45;92.71;96895.22;1786725;80;21081;-68
2023/01/01 09:29:17;;;;;;;11.68;7.97;;;;;;;8.58;92.39;96888.33;1787043;80;21476;-68
2023/01/01 09:31:41;;;;;;;10.68;7.00;;;;;;;8.69;91.24;96889.30;1787007;80;21021;-67
2023/01/01 09:34:08;;;;;;;11.85;7.92;;;;;;;8.76;91.07;96888.49;1787055;80;21427;-67
2023/01/01 09:36:34;;;;;;;9.68;7.08;;;;;;;8.84;89.68;96888.16;1787292;80;20978;-68
2023/01/01 09:39:02;;;;;;;11.22;7.55;;;;;;;8.95;90.39;96884.73;1787208;80;20977;-67
2023/01/01 09:41:56;;;;;;;13.00;9.13;;;;;;;9.05;90.10;96888.76;1787005;80;21084;-67
2023/01/01 09:44:46;;;;;;;14.20;8.83;;;;;;;9.16;86.38;96890.16;1787380;80;21001;-67
2023/01/01 09:47:24;;;;;;;12.78;9.03;;;;;;;9.30;87.55;96895.54;1786554;80;21515;-68
2023/01/01 09:49:54;;;;;;;14.03;9.70;;;;;;;9.44;87.91;96895.17;1786916;80;21056;-67
2023/01/01 09:52:21;;;;;;;15.13;8.25;;;;;;;9.62;87.42;96894.41;1787188;80;20981;-68
2023/01/01 09:54:53;;;;;;;12.80;8.70;;;;;;;9.91;87.60;96895.02;1786739;80;21084;-68
2023/01/01 09:57:26;;;;;;;11.43;8.83;;;;;;;10.28;88.12;96886.86;1786954;80;21109;-67
2023/01/01 09:59:54;;;;;;;14.00;9.18;;;;;;;10.65;85.48;96887.38;1787335;80;21049;-68
2023/01/01 10:03:11;;;;;;;12.37;9.58;;;;;;;10.96;82.24;96892.25;1786956;80;21025;-68
2023/01/01 10:06:11;;;;;;;11.50;9.15;;;;;;;11.21;83.14;96883.89;1787173;80;20979;-68
2023/01/01 10:09:06;;;;;;;13.72;9.00;;;;;;;11.64;84.10;96868.87;1787026;80;21033;-68
2023/01/01 10:12:08;;;;;;;14.13;9.53;;;;;;;12.09;82.78;96863.00;1787267;80;20974;-68
2023/01/01 10:14:40;;;;;;;11.60;8.28;;;;;;;12.46;80.79;96854.02;1787070;80;21480;-68
2023/01/01 10:17:17;;;;;;;23.60;17.02;;;;;;;12.92;80.94;96857.22;1786812;80;21464;-68
2023/01/01 10:19:51;;;;;;;16.02;10.05;;;;;;;13.23;77.54;96846.81;1786974;80;21543;-68
2023/01/01 10:22:32;;;;;;;12.03;10.43;;;;;;;13.39;70.45;96847.16;1787057;80;20998;-68
2023/01/01 10:25:18;;;;;;;13.30;11.38;;;;;;;13.64;73.92;96837.19;1787264;80;20985;-68
2023/01/01 10:28:00;;;;;;;14.55;10.90;;;;;;;13.85;69.29;96842.23;1786831;80;21117;-68
2023/01/01 10:30:28;;;;;;;14.55;10.80;;;;;;;14.26;71.38;96842.62;1787230;80;20962;-68
2023/01/01 10:32:56;;;;;;;19.45;16.12;;;;;;;14.57;69.28;96835.17;1787156;80;21040;-68
2023/01/01 10:35:43;;;;;;;12.98;11.00;;;;;;;14.73;66.34;96838.47;1787000;80;21492;-68
2023/01/01 10:38:18;;;;;;;13.43;10.60;;;;;;;14.97;66.13;96836.31;1786728;80;21065;-68
2023/01/01 10:40:45;;;;;;;13.68;12.05;;;;;;;15.28;65.84;96826.07;1786306;80;21057;-68
2023/01/01 10:43:11;;;;;;;15.32;13.62;;;;;;;15.31;61.47;96827.34;1790190;80;21024;-68
2023/01/01 10:45:54;;;;;;;12.28;11.03;;;;;;;15.49;63.78;96829.66;1792255;80;21120;-68
2023/01/01 10:48:26;;;;;;;10.80;9.65;;;;;;;15.79;63.94;96830.91;1792314;80;21016;-68
2023/01/01 10:50:58;;;;;;;13.48;11.33;;;;;;;16.11;61.74;96822.73;1792631;80;21057;-68
2023/01/01 10:53:38;;;;;;;12.68;11.12;;;;;;;16.19;60.33;96832.77;1792618;80;21483;-68
2023/01/01 10:56:16;;;;;;;12.30;10.72;;;;;;;16.40;63.03;96827.89;1762165;80;21009;-68
2023/01/01 10:58:55;;;;;;;13.03;11.00;;;;;;;16.73;60.55;96817.38;1792495;80;20978;-68
2023/01/01 11:01:31;;;;;;;11.93;10.35;;;;;;;16.82;60.31;96820.74;1792619;80;21053;-68
2023/01/01 11:04:14;;;;;;;13.75;10.70;;;;;;;17.18;60.86;96815.88;1792694;80;20978;-68
2023/01/01 11:06:45;;;;;;;12.80;10.63;;;;;;;17.40;57.98;96814.42;1792668;80;21011;-68
2023/01/01 11:09:25;;;;;;;11.35;10.25;;;;;;;17.65;60.30;96812.45;1792706;80;21001;-68
2023/01/01 11:12:01;;;;;;;11.70;10.50;;;;;;;17.35;55.54;96813.66;1792639;80;21009;-69
2023/01/01 11:14:40;;;;;;;11.75;10.30;;;;;;;17.42;56.69;96805.06;1792707;80;20970;-68
2023/01/01 11:17:09;;;;;;;11.65;10.25;;;;;;;17.80;57.40;96813.39;1779662;80;21044;-68
2023/01/01 11:19:41;;;;;;;11.95;9.43;;;;;;;18.12;55.95;96807.61;1792373;80;20969;-69
2023/01/01 11:22:13;;;;;;;11.55;10.35;;;;;;;18.23;53.56;96802.81;1792830;80;21048;-68
2023/01/01 11:24:39;;;;;;;15.70;10.68;;;;;;;18.35;54.17;96800.25;1785555;80;20993;-69
2023/01/01 11:27:24;;;;;;;11.83;10.58;;;;;;;18.57;54.98;96801.34;1792422;80;21439;-69
2023/01/01 11:29:55;;;;;;;11.80;10.60;;;;;;;18.80;53.72;96804.66;1792714;80;21475;-69
2023/01/01 11:32:27;;;;;;;12.78;11.08;;;;;;;19.06;51.46;96799.40;1787607;80;20978;-69
2023/01/01 11:35:01;;;;;;;13.00;10.18;;;;;;;19.03;51.07;96797.23;1790754;80;21044;-69
2023/01/01 11:37:37;;;;;;;12.75;10.38;;;;;;;19.01;51.38;96796.88;1792716;80;20969;-68
2023/01/01 11:40:09;;;;;;;11.65;10.45;;;;;;;19.03;51.75;96785.66;1792330;80;21005;-69
2023/01/01 11:42:36;;;;;;;14.93;11.43;;;;;;;18.88;51.70;96794.19;1789921;80;21057;-69
2023/01/01 11:45:25;;;;;;;13.78;12.07;;;;;;;18.62;51.69;96797.17;1787107;80;21503;-68
2023/01/01 11:48:01;;;;;;;16.57;12.45;;;;;;;18.50;52.26;96795.77;1787046;80;21464;-68
2023/01/01 11:50:31;;;;;;;13.15;10.45;;;;;;;18.02;51.71;96800.78;1787246;80;21452;-68
2023/01/01 11:53:23;;;;;;;18.42;15.68;;;;;;;17.61;52.29;96796.08;1787226;80;21040;-68
2023/01/01 11:56:17;;;;;;;17.20;15.32;;;;;;;17.24;52.61;96794.41;1786671;80;20990;-68
2023/01/01 11:59:05;;;;;;;14.13;12.45;;;;;;;16.94;54.78;96794.26;1787129;80;21044;-68